Terminal Aerodrome Forecast
Issued by NWS Cleveland, OH

Home | Current Version | Previous Version | Text Only | Print | Product List | Glossary Off
Versions: 1 2 3 4 5 6 7 8 9 10 11 12 13 14 15 16 17 18 19 20 21 22

000
FTUS41 KCLE 251700
TAFYNG
TAF
KYNG 251720Z 2518/2618 02009KT 5SM -SN BR OVC007
     FM251900 06012KT 1SM -SN BR OVC007
     FM252100 06008KT 1/2SM SN FZFG OVC003
     FM260900 04012KT 1 1/2SM -SN BR OVC007
     FM261700 02009KT P6SM OVC015=

USA.gov is the U.S. government's official web portal to all federal, state and local government web resources and services.